Terminal Aerodrome Forecast
Issued by NWS

Home | Current Version | Previous Version | Text Only | Print | Product List | Glossary On
Versions: 1 2 3 4 5 6 7 8 9 10 11 12 13 14 15 16 17 18 19 20 21 22 23 24
389
FTUS41 KPHI 201242 AAA
TAFMIV
TAF AMD
KMIV 201242Z 2013/2112 23008KT 6SM BR OVC004 WS020/23040KT
      TEMPO 2013/2015 3SM BR
     FM201500 22005KT 2SM -DZ BR OVC005 WS020/24040KT
     FM201700 22008KT 4SM BR BKN016
     FM202000 19005KT P6SM SCT012
     FM210000 19006KT 2SM BR BKN010 WS020/22035KT
     FM210200 VRB03KT 1/2SM FG BKN003 WS020/22035KT=

USA.gov is the U.S. government's official web portal to all federal, state and local government web resources and services.